This is the latest recevied weather packets stored in our database for station/object DC3YC-13. If no packets are shown the sender has not sent any weather packets the latest 1 day(s).
| Time | Temp. | Humidity | Pressure | Rain* | Wind** | Luminosity | Snow |
|---|---|---|---|---|---|---|---|
| 1778006193 | 12.78° C | 99% | 1004.9 hPa | 0 mm | 0 m/s | - | - |
| 1778005593 | 12.78° C | 99% | 1004.9 hPa | 0 mm | 0 m/s | - | - |
| 1778004993 | 12.78° C | 99% | 1004.9 hPa | 0 mm | 0 m/s | - | - |
| 1778004393 | 12.78° C | 99% | 1004.9 hPa | 0 mm | 0 m/s | - | - |
| 1778003793 | 12.78° C | 99% | 1004.8 hPa | 0 mm | 0 m/s | - | - |
| 1778003193 | 12.78° C | 99% | 1004.8 hPa | 0 mm | 0 m/s | - | - |
| 1778002593 | 12.78° C | 99% | 1004.8 hPa | 0 mm | 1.34 m/s, 340° | - | - |
| 1778001993 | 13.89° C | 99% | 1004.8 hPa | 1.78 mm | 0.89 m/s, 340° | - | - |
| 1778001393 | 13.89° C | 99% | 1004.8 hPa | 1.78 mm | 0 m/s | - | - |
| 1778000793 | 13.89° C | 99% | 1004.8 hPa | 1.78 mm | 2.24 m/s, 335° | - | - |
| 1778000193 | 13.89° C | 99% | 1003.8 hPa | 1.78 mm | 0.45 m/s, 335° | - | - |
| 1777999593 | 13.89° C | 99% | 1004.8 hPa | 1.78 mm | 0.89 m/s, 340° | - | - |
| 1777998993 | 13.89° C | 99% | 1004.8 hPa | 1.78 mm | 1.79 m/s, 340° | - | - |
| 1777998393 | 13.89° C | 99% | 1004.8 hPa | 2.29 mm | 0.45 m/s, 340° | - | - |
| 1777997793 | 13.89° C | 98% | 1004.8 hPa | 2.29 mm | 1.34 m/s, 340° | - | - |
| 1777997193 | 13.89° C | 98% | 1004.8 hPa | 2.29 mm | 2.68 m/s, 340° | - | - |
| 1777996593 | 13.89° C | 97% | 1004.8 hPa | 2.29 mm | 3.13 m/s, 340° | - | - |
| 1777995993 | 13.89° C | 97% | 1004.8 hPa | 2.29 mm | 3.58 m/s, 345° | - | - |
| 1777995393 | 15° C | 96% | 1004.8 hPa | 2.29 mm | 3.58 m/s, 345° | - | - |
| 1777994793 | 15° C | 94% | 1004.8 hPa | 0 mm | 4.92 m/s, 350° | - | - |
| 1777994193 | 16.11° C | 88% | 1004.8 hPa | 0 mm | 4.92 m/s, 355° | - | - |
| 1777993593 | 20° C | 64% | 1003.8 hPa | 0 mm | 1.79 m/s, 355° | - | - |
| 1777992993 | 21.11° C | 51% | 1002.7 hPa | 0 mm | 0 m/s | - | - |
| 1777992393 | 22.22° C | 50% | 1002.7 hPa | 0 mm | 2.68 m/s, 355° | - | - |
| 1777991793 | 22.22° C | 50% | 1002.7 hPa | 0 mm | 3.13 m/s, 355° | - | - |
* Rain latest hour (hover to see other rain measurements)
** Current wind speed in m/s (hover to see current wind gust speed)